McCall, Idaho
Current Conditions -  °F | °C
As of 4:06 AM on Saturday 20 Dec 2014 (Local Time) from KMYL Reporting Station
Light Snow Light Snow  
Wind Chill: -4°   Ceiling: 2300
Heat Index: -1°   Visibility: 4mi
Dew Point: -2°   Wind: 6mph
Humidity: 96%   Direction: 150°SSE
Pressure: 29.97"   Gusts: NA
Location:  44.91°N, 116.1°W
Report Text: KMYL 201106Z AUTO 15005KT 4SM -SN BR FEW006 BKN023 OVC032 M01/M02 A2997 RMK AO2 P0000 T10111017
Loading
Personal Weather Stations






























Interactive Weather Map New forecast layout! Learn more

10-Day Weather Forecast

Advertisements
Track Severe Weather on mobile